sensor_id;sensor_type;location;lat;lon;timestamp;P1;durP1;ratioP1;P2;durP2;ratioP2
37719;SDS011;23567;50.156;7.700;2024-03-08T00:02:02;1.80;;;0.77;;
37719;SDS011;23567;50.156;7.700;2024-03-08T00:04:28;1.83;;;1.23;;
37719;SDS011;23567;50.156;7.700;2024-03-08T00:06:53;2.43;;;1.30;;
37719;SDS011;23567;50.156;7.700;2024-03-08T00:09:18;2.40;;;1.20;;
37719;SDS011;23567;50.156;7.700;2024-03-08T00:11:43;3.28;;;1.55;;
37719;SDS011;23567;50.156;7.700;2024-03-08T00:14:09;3.77;;;1.07;;
37719;SDS011;23567;50.156;7.700;2024-03-08T00:16:34;1.60;;;1.00;;
37719;SDS011;23567;50.156;7.700;2024-03-08T00:19:00;1.60;;;1.02;;
37719;SDS011;23567;50.156;7.700;2024-03-08T00:21:25;1.55;;;1.00;;
37719;SDS011;23567;50.156;7.700;2024-03-08T00:23:52;3.38;;;1.45;;
37719;SDS011;23567;50.156;7.700;2024-03-08T00:26:19;2.67;;;1.40;;
37719;SDS011;23567;50.156;7.700;2024-03-08T00:28:45;2.70;;;0.97;;
37719;SDS011;23567;50.156;7.700;2024-03-08T00:31:10;5.13;;;1.40;;
37719;SDS011;23567;50.156;7.700;2024-03-08T00:33:35;1.73;;;1.23;;
37719;SDS011;23567;50.156;7.700;2024-03-08T00:36:01;4.78;;;1.35;;
37719;SDS011;23567;50.156;7.700;2024-03-08T00:38:27;1.48;;;1.10;;
37719;SDS011;23567;50.156;7.700;2024-03-08T00:40:52;4.80;;;1.63;;
37719;SDS011;23567;50.156;7.700;2024-03-08T00:43:18;2.37;;;1.00;;
37719;SDS011;23567;50.156;7.700;2024-03-08T00:45:43;0.83;;;0.73;;
37719;SDS011;23567;50.156;7.700;2024-03-08T00:48:08;2.43;;;1.20;;
37719;SDS011;23567;50.156;7.700;2024-03-08T00:50:34;3.25;;;1.33;;
37719;SDS011;23567;50.156;7.700;2024-03-08T00:52:59;2.77;;;1.17;;
37719;SDS011;23567;50.156;7.700;2024-03-08T00:55:25;1.83;;;1.10;;
37719;SDS011;23567;50.156;7.700;2024-03-08T00:57:50;5.40;;;1.30;;
37719;SDS011;23567;50.156;7.700;2024-03-08T01:00:15;3.30;;;1.20;;
37719;SDS011;23567;50.156;7.700;2024-03-08T01:02:41;3.63;;;1.10;;
37719;SDS011;23567;50.156;7.700;2024-03-08T01:05:07;2.30;;;1.23;;
37719;SDS011;23567;50.156;7.700;2024-03-08T01:07:33;3.83;;;1.10;;
37719;SDS011;23567;50.156;7.700;2024-03-08T01:09:58;1.90;;;1.13;;
37719;SDS011;23567;50.156;7.700;2024-03-08T01:12:24;1.50;;;1.10;;
37719;SDS011;23567;50.156;7.700;2024-03-08T01:14:49;2.37;;;1.17;;
37719;SDS011;23567;50.156;7.700;2024-03-08T01:17:14;2.10;;;0.93;;
37719;SDS011;23567;50.156;7.700;2024-03-08T01:19:40;4.70;;;0.90;;
37719;SDS011;23567;50.156;7.700;2024-03-08T01:22:05;1.87;;;1.03;;
37719;SDS011;23567;50.156;7.700;2024-03-08T01:24:30;1.40;;;1.05;;
37719;SDS011;23567;50.156;7.700;2024-03-08T01:26:55;2.50;;;1.40;;
37719;SDS011;23567;50.156;7.700;2024-03-08T01:29:21;2.03;;;1.20;;
37719;SDS011;23567;50.156;7.700;2024-03-08T01:31:46;3.63;;;1.33;;
37719;SDS011;23567;50.156;7.700;2024-03-08T01:34:11;2.13;;;1.02;;
37719;SDS011;23567;50.156;7.700;2024-03-08T01:36:36;4.80;;;1.63;;
37719;SDS011;23567;50.156;7.700;2024-03-08T01:39:02;1.77;;;1.10;;
37719;SDS011;23567;50.156;7.700;2024-03-08T01:41:32;2.50;;;1.07;;
37719;SDS011;23567;50.156;7.700;2024-03-08T01:43:58;3.90;;;1.30;;
37719;SDS011;23567;50.156;7.700;2024-03-08T01:46:23;2.80;;;1.40;;
37719;SDS011;23567;50.156;7.700;2024-03-08T01:48:49;1.30;;;0.90;;
37719;SDS011;23567;50.156;7.700;2024-03-08T01:51:16;2.40;;;1.20;;
37719;SDS011;23567;50.156;7.700;2024-03-08T01:53:41;1.67;;;1.20;;
37719;SDS011;23567;50.156;7.700;2024-03-08T01:56:08;2.05;;;1.17;;
37719;SDS011;23567;50.156;7.700;2024-03-08T01:58:33;4.37;;;1.60;;
37719;SDS011;23567;50.156;7.700;2024-03-08T02:01:00;2.33;;;0.83;;
37719;SDS011;23567;50.156;7.700;2024-03-08T02:03:29;2.03;;;1.20;;
37719;SDS011;23567;50.156;7.700;2024-03-08T02:05:56;3.00;;;1.08;;
37719;SDS011;23567;50.156;7.700;2024-03-08T02:08:23;1.60;;;1.20;;
37719;SDS011;23567;50.156;7.700;2024-03-08T02:10:49;2.27;;;1.00;;
37719;SDS011;23567;50.156;7.700;2024-03-08T02:13:14;2.27;;;1.10;;
37719;SDS011;23567;50.156;7.700;2024-03-08T02:15:49;1.63;;;0.93;;
37719;SDS011;23567;50.156;7.700;2024-03-08T02:18:14;1.30;;;1.00;;
37719;SDS011;23567;50.156;7.700;2024-03-08T02:20:40;1.48;;;1.15;;
37719;SDS011;23567;50.156;7.700;2024-03-08T02:23:05;2.10;;;1.10;;
37719;SDS011;23567;50.156;7.700;2024-03-08T02:25:30;2.77;;;1.10;;
37719;SDS011;23567;50.156;7.700;2024-03-08T02:27:56;1.67;;;0.80;;
37719;SDS011;23567;50.156;7.700;2024-03-08T02:30:21;3.27;;;1.13;;
37719;SDS011;23567;50.156;7.700;2024-03-08T02:32:46;1.30;;;1.10;;
37719;SDS011;23567;50.156;7.700;2024-03-08T02:35:11;2.00;;;1.37;;
37719;SDS011;23567;50.156;7.700;2024-03-08T02:37:36;3.70;;;1.10;;
37719;SDS011;23567;50.156;7.700;2024-03-08T02:40:03;1.45;;;0.90;;
37719;SDS011;23567;50.156;7.700;2024-03-08T02:42:28;1.97;;;1.07;;
37719;SDS011;23567;50.156;7.700;2024-03-08T02:44:54;3.80;;;1.57;;
37719;SDS011;23567;50.156;7.700;2024-03-08T02:47:19;1.37;;;1.00;;
37719;SDS011;23567;50.156;7.700;2024-03-08T02:49:45;1.23;;;1.10;;
37719;SDS011;23567;50.156;7.700;2024-03-08T02:52:10;1.53;;;1.17;;
37719;SDS011;23567;50.156;7.700;2024-03-08T02:54:36;2.97;;;1.30;;
37719;SDS011;23567;50.156;7.700;2024-03-08T02:57:01;1.60;;;1.00;;
37719;SDS011;23567;50.156;7.700;2024-03-08T02:59:27;2.30;;;1.33;;
37719;SDS011;23567;50.156;7.700;2024-03-08T03:01:52;2.60;;;0.90;;
37719;SDS011;23567;50.156;7.700;2024-03-08T03:04:17;1.57;;;1.00;;
37719;SDS011;23567;50.156;7.700;2024-03-08T03:06:43;3.83;;;1.20;;
37719;SDS011;23567;50.156;7.700;2024-03-08T03:09:08;1.90;;;1.23;;
37719;SDS011;23567;50.156;7.700;2024-03-08T03:11:35;1.13;;;0.97;;
37719;SDS011;23567;50.156;7.700;2024-03-08T03:14:00;2.33;;;1.10;;
37719;SDS011;23567;50.156;7.700;2024-03-08T03:16:26;2.17;;;1.07;;
37719;SDS011;23567;50.156;7.700;2024-03-08T03:18:51;2.40;;;1.40;;
37719;SDS011;23567;50.156;7.700;2024-03-08T03:21:16;2.17;;;1.00;;
37719;SDS011;23567;50.156;7.700;2024-03-08T03:23:42;1.52;;;1.08;;
37719;SDS011;23567;50.156;7.700;2024-03-08T03:26:08;1.93;;;1.20;;
37719;SDS011;23567;50.156;7.700;2024-03-08T03:28:33;1.70;;;1.20;;
37719;SDS011;23567;50.156;7.700;2024-03-08T03:30:59;1.27;;;0.90;;
37719;SDS011;23567;50.156;7.700;2024-03-08T03:33:24;2.70;;;0.70;;
37719;SDS011;23567;50.156;7.700;2024-03-08T03:35:49;1.60;;;1.20;;
37719;SDS011;23567;50.156;7.700;2024-03-08T03:38:16;2.58;;;1.13;;
37719;SDS011;23567;50.156;7.700;2024-03-08T03:40:42;2.03;;;1.13;;
37719;SDS011;23567;50.156;7.700;2024-03-08T03:43:07;1.77;;;1.30;;
37719;SDS011;23567;50.156;7.700;2024-03-08T03:45:32;2.83;;;1.23;;
37719;SDS011;23567;50.156;7.700;2024-03-08T03:48:07;1.20;;;0.82;;
37719;SDS011;23567;50.156;7.700;2024-03-08T03:50:34;1.45;;;1.20;;
37719;SDS011;23567;50.156;7.700;2024-03-08T03:52:59;1.08;;;0.93;;
37719;SDS011;23567;50.156;7.700;2024-03-08T03:55:24;1.20;;;0.88;;
37719;SDS011;23567;50.156;7.700;2024-03-08T03:57:50;1.97;;;1.30;;
37719;SDS011;23567;50.156;7.700;2024-03-08T04:00:15;1.90;;;1.00;;
37719;SDS011;23567;50.156;7.700;2024-03-08T04:02:40;1.47;;;0.93;;
37719;SDS011;23567;50.156;7.700;2024-03-08T04:05:06;2.13;;;0.83;;
37719;SDS011;23567;50.156;7.700;2024-03-08T04:07:32;2.28;;;1.20;;
37719;SDS011;23567;50.156;7.700;2024-03-08T04:09:57;2.90;;;1.20;;
37719;SDS011;23567;50.156;7.700;2024-03-08T04:12:22;2.30;;;1.03;;
37719;SDS011;23567;50.156;7.700;2024-03-08T04:14:48;1.67;;;1.23;;
37719;SDS011;23567;50.156;7.700;2024-03-08T04:17:13;2.53;;;1.47;;
37719;SDS011;23567;50.156;7.700;2024-03-08T04:19:38;1.50;;;1.00;;
37719;SDS011;23567;50.156;7.700;2024-03-08T04:22:05;1.98;;;1.05;;
37719;SDS011;23567;50.156;7.700;2024-03-08T04:24:30;2.70;;;1.13;;
37719;SDS011;23567;50.156;7.700;2024-03-08T04:26:56;2.50;;;1.20;;
37719;SDS011;23567;50.156;7.700;2024-03-08T04:29:21;2.00;;;0.90;;
37719;SDS011;23567;50.156;7.700;2024-03-08T04:31:47;1.53;;;1.10;;
37719;SDS011;23567;50.156;7.700;2024-03-08T04:34:12;2.00;;;1.40;;
37719;SDS011;23567;50.156;7.700;2024-03-08T04:36:38;1.53;;;1.00;;
37719;SDS011;23567;50.156;7.700;2024-03-08T04:39:03;2.20;;;1.27;;
37719;SDS011;23567;50.156;7.700;2024-03-08T04:41:28;1.27;;;0.83;;
37719;SDS011;23567;50.156;7.700;2024-03-08T04:43:55;1.10;;;1.00;;
37719;SDS011;23567;50.156;7.700;2024-03-08T04:46:22;3.75;;;1.40;;
37719;SDS011;23567;50.156;7.700;2024-03-08T04:48:48;2.30;;;1.17;;
37719;SDS011;23567;50.156;7.700;2024-03-08T04:51:13;1.73;;;1.10;;
37719;SDS011;23567;50.156;7.700;2024-03-08T04:53:38;1.40;;;1.13;;
37719;SDS011;23567;50.156;7.700;2024-03-08T04:56:03;1.30;;;1.00;;
37719;SDS011;23567;50.156;7.700;2024-03-08T04:58:32;1.85;;;0.90;;
37719;SDS011;23567;50.156;7.700;2024-03-08T05:00:59;2.30;;;1.53;;
37719;SDS011;23567;50.156;7.700;2024-03-08T05:03:24;1.30;;;0.90;;
37719;SDS011;23567;50.156;7.700;2024-03-08T05:05:51;2.13;;;0.95;;
37719;SDS011;23567;50.156;7.700;2024-03-08T05:08:17;4.07;;;1.27;;
37719;SDS011;23567;50.156;7.700;2024-03-08T05:10:43;1.65;;;1.20;;
37719;SDS011;23567;50.156;7.700;2024-03-08T05:13:08;3.50;;;1.33;;
37719;SDS011;23567;50.156;7.700;2024-03-08T05:15:34;2.40;;;1.07;;
37719;SDS011;23567;50.156;7.700;2024-03-08T05:18:00;1.40;;;1.00;;
37719;SDS011;23567;50.156;7.700;2024-03-08T05:20:25;3.30;;;1.30;;
37719;SDS011;23567;50.156;7.700;2024-03-08T05:22:51;3.33;;;1.50;;
37719;SDS011;23567;50.156;7.700;2024-03-08T05:25:17;2.30;;;1.00;;
37719;SDS011;23567;50.156;7.700;2024-03-08T05:27:42;1.27;;;0.82;;
37719;SDS011;23567;50.156;7.700;2024-03-08T05:30:08;3.42;;;1.30;;
37719;SDS011;23567;50.156;7.700;2024-03-08T05:32:39;1.42;;;0.95;;
37719;SDS011;23567;50.156;7.700;2024-03-08T05:35:04;2.70;;;1.07;;
37719;SDS011;23567;50.156;7.700;2024-03-08T05:37:32;2.63;;;1.40;;
37719;SDS011;23567;50.156;7.700;2024-03-08T05:39:57;1.80;;;1.20;;
37719;SDS011;23567;50.156;7.700;2024-03-08T05:42:23;2.07;;;1.20;;
37719;SDS011;23567;50.156;7.700;2024-03-08T05:44:48;1.33;;;1.00;;
37719;SDS011;23567;50.156;7.700;2024-03-08T05:47:14;2.50;;;1.05;;
37719;SDS011;23567;50.156;7.700;2024-03-08T05:49:41;4.15;;;1.70;;
37719;SDS011;23567;50.156;7.700;2024-03-08T05:52:06;2.57;;;1.37;;
37719;SDS011;23567;50.156;7.700;2024-03-08T05:54:32;3.27;;;1.20;;
37719;SDS011;23567;50.156;7.700;2024-03-08T05:56:58;4.35;;;1.70;;
37719;SDS011;23567;50.156;7.700;2024-03-08T05:59:23;1.97;;;1.43;;
37719;SDS011;23567;50.156;7.700;2024-03-08T06:01:48;1.87;;;1.30;;
37719;SDS011;23567;50.156;7.700;2024-03-08T06:04:14;1.83;;;1.20;;
37719;SDS011;23567;50.156;7.700;2024-03-08T06:06:39;2.27;;;1.27;;
37719;SDS011;23567;50.156;7.700;2024-03-08T06:09:04;1.50;;;1.20;;
37719;SDS011;23567;50.156;7.700;2024-03-08T06:11:42;2.30;;;1.20;;
37719;SDS011;23567;50.156;7.700;2024-03-08T06:14:08;3.30;;;1.60;;
37719;SDS011;23567;50.156;7.700;2024-03-08T06:16:33;1.37;;;1.17;;
37719;SDS011;23567;50.156;7.700;2024-03-08T06:18:58;3.17;;;1.67;;
37719;SDS011;23567;50.156;7.700;2024-03-08T06:21:24;3.07;;;1.70;;
37719;SDS011;23567;50.156;7.700;2024-03-08T06:23:51;3.72;;;1.42;;
37719;SDS011;23567;50.156;7.700;2024-03-08T06:26:16;3.70;;;1.75;;
37719;SDS011;23567;50.156;7.700;2024-03-08T06:28:41;5.40;;;1.45;;
37719;SDS011;23567;50.156;7.700;2024-03-08T06:31:07;3.43;;;1.63;;
37719;SDS011;23567;50.156;7.700;2024-03-08T06:33:33;3.85;;;1.77;;
37719;SDS011;23567;50.156;7.700;2024-03-08T06:35:58;4.03;;;1.63;;
37719;SDS011;23567;50.156;7.700;2024-03-08T06:38:23;7.53;;;1.60;;
37719;SDS011;23567;50.156;7.700;2024-03-08T06:40:49;3.85;;;1.77;;
37719;SDS011;23567;50.156;7.700;2024-03-08T06:43:16;2.70;;;1.83;;
37719;SDS011;23567;50.156;7.700;2024-03-08T06:45:44;4.33;;;1.93;;
37719;SDS011;23567;50.156;7.700;2024-03-08T06:48:19;5.03;;;2.08;;
37719;SDS011;23567;50.156;7.700;2024-03-08T06:50:44;2.73;;;2.20;;
37719;SDS011;23567;50.156;7.700;2024-03-08T06:53:10;2.63;;;1.70;;
37719;SDS011;23567;50.156;7.700;2024-03-08T06:55:35;3.90;;;2.10;;
37719;SDS011;23567;50.156;7.700;2024-03-08T06:58:01;2.50;;;1.60;;
37719;SDS011;23567;50.156;7.700;2024-03-08T07:00:26;1.50;;;1.27;;
37719;SDS011;23567;50.156;7.700;2024-03-08T07:02:53;2.85;;;1.70;;
37719;SDS011;23567;50.156;7.700;2024-03-08T07:05:19;6.70;;;1.80;;
37719;SDS011;23567;50.156;7.700;2024-03-08T07:07:44;9.57;;;1.90;;
37719;SDS011;23567;50.156;7.700;2024-03-08T07:10:10;5.67;;;1.83;;
37719;SDS011;23567;50.156;7.700;2024-03-08T07:12:40;5.72;;;2.00;;
37719;SDS011;23567;50.156;7.700;2024-03-08T07:15:05;4.47;;;1.93;;
37719;SDS011;23567;50.156;7.700;2024-03-08T07:17:31;4.93;;;1.70;;
37719;SDS011;23567;50.156;7.700;2024-03-08T07:19:59;3.25;;;1.67;;
37719;SDS011;23567;50.156;7.700;2024-03-08T07:22:24;3.13;;;1.95;;
37719;SDS011;23567;50.156;7.700;2024-03-08T07:24:49;2.80;;;1.80;;
37719;SDS011;23567;50.156;7.700;2024-03-08T07:27:35;3.47;;;2.13;;
37719;SDS011;23567;50.156;7.700;2024-03-08T07:30:01;6.53;;;1.95;;
37719;SDS011;23567;50.156;7.700;2024-03-08T07:32:27;2.70;;;1.80;;
37719;SDS011;23567;50.156;7.700;2024-03-08T07:34:54;2.08;;;1.73;;
37719;SDS011;23567;50.156;7.700;2024-03-08T07:37:20;4.85;;;2.15;;
37719;SDS011;23567;50.156;7.700;2024-03-08T07:39:46;2.07;;;1.57;;
37719;SDS011;23567;50.156;7.700;2024-03-08T07:42:11;4.90;;;2.20;;
37719;SDS011;23567;50.156;7.700;2024-03-08T07:44:37;4.65;;;2.28;;
37719;SDS011;23567;50.156;7.700;2024-03-08T07:47:03;3.80;;;2.10;;
37719;SDS011;23567;50.156;7.700;2024-03-08T07:49:28;3.75;;;2.13;;
37719;SDS011;23567;50.156;7.700;2024-03-08T07:51:54;3.97;;;1.80;;
37719;SDS011;23567;50.156;7.700;2024-03-08T07:54:19;5.07;;;2.00;;
37719;SDS011;23567;50.156;7.700;2024-03-08T07:56:45;4.10;;;1.88;;
37719;SDS011;23567;50.156;7.700;2024-03-08T07:59:10;6.27;;;2.13;;
37719;SDS011;23567;50.156;7.700;2024-03-08T08:01:37;6.93;;;2.58;;
37719;SDS011;23567;50.156;7.700;2024-03-08T08:04:02;5.30;;;2.40;;
37719;SDS011;23567;50.156;7.700;2024-03-08T08:06:27;4.45;;;2.65;;
37719;SDS011;23567;50.156;7.700;2024-03-08T08:08:53;6.03;;;2.67;;
37719;SDS011;23567;50.156;7.700;2024-03-08T08:11:18;3.25;;;2.40;;
37719;SDS011;23567;50.156;7.700;2024-03-08T08:13:45;2.85;;;2.05;;
37719;SDS011;23567;50.156;7.700;2024-03-08T08:16:10;2.85;;;2.03;;
37719;SDS011;23567;50.156;7.700;2024-03-08T08:18:35;6.47;;;2.50;;
37719;SDS011;23567;50.156;7.700;2024-03-08T08:21:01;6.40;;;2.53;;
37719;SDS011;23567;50.156;7.700;2024-03-08T08:23:27;8.38;;;3.00;;
37719;SDS011;23567;50.156;7.700;2024-03-08T08:25:52;5.20;;;2.37;;
37719;SDS011;23567;50.156;7.700;2024-03-08T08:28:17;9.27;;;2.73;;
37719;SDS011;23567;50.156;7.700;2024-03-08T08:30:44;3.65;;;2.25;;
37719;SDS011;23567;50.156;7.700;2024-03-08T08:33:09;3.77;;;2.33;;
37719;SDS011;23567;50.156;7.700;2024-03-08T08:35:35;3.35;;;2.25;;
37719;SDS011;23567;50.156;7.700;2024-03-08T08:38:00;4.97;;;2.40;;
37719;SDS011;23567;50.156;7.700;2024-03-08T08:40:28;5.25;;;2.65;;
37719;SDS011;23567;50.156;7.700;2024-03-08T08:42:55;4.13;;;2.45;;
37719;SDS011;23567;50.156;7.700;2024-03-08T08:45:22;3.40;;;2.70;;
37719;SDS011;23567;50.156;7.700;2024-03-08T08:47:48;6.57;;;2.97;;
37719;SDS011;23567;50.156;7.700;2024-03-08T08:50:14;6.63;;;2.53;;
37719;SDS011;23567;50.156;7.700;2024-03-08T08:52:41;4.40;;;2.80;;
37719;SDS011;23567;50.156;7.700;2024-03-08T08:55:08;4.40;;;2.43;;
37719;SDS011;23567;50.156;7.700;2024-03-08T08:57:34;5.35;;;2.97;;
37719;SDS011;23567;50.156;7.700;2024-03-08T09:00:00;6.07;;;3.00;;
37719;SDS011;23567;50.156;7.700;2024-03-08T09:02:25;7.67;;;2.77;;
37719;SDS011;23567;50.156;7.700;2024-03-08T09:04:51;5.43;;;2.70;;
37719;SDS011;23567;50.156;7.700;2024-03-08T09:07:16;4.47;;;2.77;;
37719;SDS011;23567;50.156;7.700;2024-03-08T09:09:43;5.07;;;2.10;;
37719;SDS011;23567;50.156;7.700;2024-03-08T09:12:09;4.50;;;2.50;;
37719;SDS011;23567;50.156;7.700;2024-03-08T09:14:38;5.73;;;2.53;;
37719;SDS011;23567;50.156;7.700;2024-03-08T09:17:03;2.57;;;2.33;;
37719;SDS011;23567;50.156;7.700;2024-03-08T09:19:29;3.50;;;2.50;;
37719;SDS011;23567;50.156;7.700;2024-03-08T09:21:54;4.57;;;2.73;;
37719;SDS011;23567;50.156;7.700;2024-03-08T09:24:19;3.47;;;2.30;;
37719;SDS011;23567;50.156;7.700;2024-03-08T09:26:44;4.25;;;2.38;;
37719;SDS011;23567;50.156;7.700;2024-03-08T09:29:10;3.63;;;2.53;;
37719;SDS011;23567;50.156;7.700;2024-03-08T09:31:36;4.20;;;2.10;;
37719;SDS011;23567;50.156;7.700;2024-03-08T09:34:03;2.97;;;2.00;;
37719;SDS011;23567;50.156;7.700;2024-03-08T09:36:28;5.17;;;2.57;;
37719;SDS011;23567;50.156;7.700;2024-03-08T09:38:53;4.00;;;2.33;;
37719;SDS011;23567;50.156;7.700;2024-03-08T09:41:18;3.57;;;2.23;;
37719;SDS011;23567;50.156;7.700;2024-03-08T09:43:44;3.33;;;2.30;;
37719;SDS011;23567;50.156;7.700;2024-03-08T09:46:10;6.13;;;2.70;;
37719;SDS011;23567;50.156;7.700;2024-03-08T09:48:38;5.20;;;2.50;;
37719;SDS011;23567;50.156;7.700;2024-03-08T09:51:06;3.13;;;2.05;;
37719;SDS011;23567;50.156;7.700;2024-03-08T09:53:32;5.07;;;2.00;;
37719;SDS011;23567;50.156;7.700;2024-03-08T09:55:58;3.72;;;2.30;;
37719;SDS011;23567;50.156;7.700;2024-03-08T09:58:24;6.00;;;2.00;;
37719;SDS011;23567;50.156;7.700;2024-03-08T10:00:58;3.33;;;2.45;;
37719;SDS011;23567;50.156;7.700;2024-03-08T10:03:23;6.57;;;2.47;;
37719;SDS011;23567;50.156;7.700;2024-03-08T10:05:51;7.10;;;3.38;;
37719;SDS011;23567;50.156;7.700;2024-03-08T10:08:16;5.97;;;2.77;;
37719;SDS011;23567;50.156;7.700;2024-03-08T10:10:41;6.33;;;2.47;;
37719;SDS011;23567;50.156;7.700;2024-03-08T10:13:08;3.17;;;2.05;;
37719;SDS011;23567;50.156;7.700;2024-03-08T10:15:34;9.30;;;2.53;;
37719;SDS011;23567;50.156;7.700;2024-03-08T10:17:59;6.27;;;2.27;;
37719;SDS011;23567;50.156;7.700;2024-03-08T10:20:27;3.85;;;2.60;;
37719;SDS011;23567;50.156;7.700;2024-03-08T10:22:52;3.50;;;2.30;;
37719;SDS011;23567;50.156;7.700;2024-03-08T10:25:18;2.75;;;1.85;;
37719;SDS011;23567;50.156;7.700;2024-03-08T10:27:44;3.37;;;1.97;;
37719;SDS011;23567;50.156;7.700;2024-03-08T10:30:14;4.17;;;2.47;;
37719;SDS011;23567;50.156;7.700;2024-03-08T10:32:39;4.82;;;2.35;;
37719;SDS011;23567;50.156;7.700;2024-03-08T10:35:06;4.70;;;2.37;;
37719;SDS011;23567;50.156;7.700;2024-03-08T10:37:32;3.47;;;2.50;;
37719;SDS011;23567;50.156;7.700;2024-03-08T10:40:04;9.00;;;2.78;;
37719;SDS011;23567;50.156;7.700;2024-03-08T10:42:39;5.60;;;2.97;;
37719;SDS011;23567;50.156;7.700;2024-03-08T10:47:31;4.50;;;2.70;;
37719;SDS011;23567;50.156;7.700;2024-03-08T10:50:10;6.72;;;2.53;;
37719;SDS011;23567;50.156;7.700;2024-03-08T10:52:38;4.03;;;2.28;;
37719;SDS011;23567;50.156;7.700;2024-03-08T10:55:03;5.20;;;2.60;;
37719;SDS011;23567;50.156;7.700;2024-03-08T10:57:29;7.93;;;2.92;;
37719;SDS011;23567;50.156;7.700;2024-03-08T10:59:54;5.77;;;2.30;;
37719;SDS011;23567;50.156;7.700;2024-03-08T11:02:19;4.77;;;2.30;;
37719;SDS011;23567;50.156;7.700;2024-03-08T11:04:48;3.97;;;2.40;;
37719;SDS011;23567;50.156;7.700;2024-03-08T11:07:14;4.60;;;2.53;;
37719;SDS011;23567;50.156;7.700;2024-03-08T11:09:43;3.10;;;2.33;;
37719;SDS011;23567;50.156;7.700;2024-03-08T11:12:20;3.70;;;2.00;;
37719;SDS011;23567;50.156;7.700;2024-03-08T11:14:47;3.10;;;2.30;;
37719;SDS011;23567;50.156;7.700;2024-03-08T11:17:15;6.40;;;2.17;;
37719;SDS011;23567;50.156;7.700;2024-03-08T11:19:45;5.00;;;2.60;;
37719;SDS011;23567;50.156;7.700;2024-03-08T11:22:13;4.68;;;2.63;;
37719;SDS011;23567;50.156;7.700;2024-03-08T11:24:46;3.28;;;2.22;;
37719;SDS011;23567;50.156;7.700;2024-03-08T11:27:11;5.63;;;2.50;;
37719;SDS011;23567;50.156;7.700;2024-03-08T11:29:37;3.05;;;2.20;;
37719;SDS011;23567;50.156;7.700;2024-03-08T11:32:08;8.20;;;2.50;;
37719;SDS011;23567;50.156;7.700;2024-03-08T11:34:40;3.72;;;2.40;;
37719;SDS011;23567;50.156;7.700;2024-03-08T11:37:10;3.67;;;2.20;;
37719;SDS011;23567;50.156;7.700;2024-03-08T11:39:38;6.55;;;3.00;;
37719;SDS011;23567;50.156;7.700;2024-03-08T11:42:03;10.45;;;2.83;;
37719;SDS011;23567;50.156;7.700;2024-03-08T11:44:29;6.30;;;2.93;;
37719;SDS011;23567;50.156;7.700;2024-03-08T11:46:56;7.53;;;2.37;;
37719;SDS011;23567;50.156;7.700;2024-03-08T11:49:22;5.63;;;2.57;;
37719;SDS011;23567;50.156;7.700;2024-03-08T11:51:50;7.38;;;2.72;;
37719;SDS011;23567;50.156;7.700;2024-03-08T11:54:17;4.43;;;2.90;;
37719;SDS011;23567;50.156;7.700;2024-03-08T11:56:42;5.87;;;2.37;;
37719;SDS011;23567;50.156;7.700;2024-03-08T11:59:11;4.30;;;2.60;;
37719;SDS011;23567;50.156;7.700;2024-03-08T12:01:37;7.95;;;2.78;;
37719;SDS011;23567;50.156;7.700;2024-03-08T12:04:02;4.40;;;2.47;;
37719;SDS011;23567;50.156;7.700;2024-03-08T12:06:40;6.25;;;2.38;;
37719;SDS011;23567;50.156;7.700;2024-03-08T12:09:09;4.60;;;2.08;;
37719;SDS011;23567;50.156;7.700;2024-03-08T12:11:35;3.97;;;2.17;;
37719;SDS011;23567;50.156;7.700;2024-03-08T12:14:01;4.20;;;2.20;;
37719;SDS011;23567;50.156;7.700;2024-03-08T12:16:26;3.33;;;1.87;;
37719;SDS011;23567;50.156;7.700;2024-03-08T12:18:52;2.65;;;1.77;;
37719;SDS011;23567;50.156;7.700;2024-03-08T12:21:18;5.77;;;2.30;;
37719;SDS011;23567;50.156;7.700;2024-03-08T12:23:46;4.60;;;2.60;;
37719;SDS011;23567;50.156;7.700;2024-03-08T12:26:23;3.83;;;1.92;;
37719;SDS011;23567;50.156;7.700;2024-03-08T12:28:48;5.53;;;2.08;;
37719;SDS011;23567;50.156;7.700;2024-03-08T12:31:14;3.58;;;1.92;;
37719;SDS011;23567;50.156;7.700;2024-03-08T12:33:51;4.65;;;1.83;;
37719;SDS011;23567;50.156;7.700;2024-03-08T12:36:17;3.40;;;1.98;;
37719;SDS011;23567;50.156;7.700;2024-03-08T12:38:43;4.22;;;1.88;;
37719;SDS011;23567;50.156;7.700;2024-03-08T12:41:09;4.43;;;2.03;;
37719;SDS011;23567;50.156;7.700;2024-03-08T12:43:34;3.67;;;2.20;;
37719;SDS011;23567;50.156;7.700;2024-03-08T12:45:59;2.57;;;1.40;;
37719;SDS011;23567;50.156;7.700;2024-03-08T12:48:25;2.80;;;1.63;;
37719;SDS011;23567;50.156;7.700;2024-03-08T12:50:50;4.77;;;2.10;;
37719;SDS011;23567;50.156;7.700;2024-03-08T12:53:17;4.10;;;1.83;;
37719;SDS011;23567;50.156;7.700;2024-03-08T12:55:42;4.57;;;2.03;;
37719;SDS011;23567;50.156;7.700;2024-03-08T12:58:07;3.13;;;1.77;;
37719;SDS011;23567;50.156;7.700;2024-03-08T13:00:36;3.03;;;1.87;;
37719;SDS011;23567;50.156;7.700;2024-03-08T13:03:02;1.50;;;1.40;;
37719;SDS011;23567;50.156;7.700;2024-03-08T13:05:27;8.07;;;2.27;;
37719;SDS011;23567;50.156;7.700;2024-03-08T13:07:52;3.60;;;1.90;;
37719;SDS011;23567;50.156;7.700;2024-03-08T13:10:18;3.17;;;1.80;;
37719;SDS011;23567;50.156;7.700;2024-03-08T13:12:45;2.17;;;1.65;;
37719;SDS011;23567;50.156;7.700;2024-03-08T13:15:10;3.72;;;1.85;;
37719;SDS011;23567;50.156;7.700;2024-03-08T13:17:40;4.05;;;1.92;;
37719;SDS011;23567;50.156;7.700;2024-03-08T13:20:07;4.37;;;1.63;;
37719;SDS011;23567;50.156;7.700;2024-03-08T13:22:32;4.37;;;2.00;;
37719;SDS011;23567;50.156;7.700;2024-03-08T13:24:58;5.53;;;1.90;;
37719;SDS011;23567;50.156;7.700;2024-03-08T13:27:25;4.15;;;2.28;;
37719;SDS011;23567;50.156;7.700;2024-03-08T13:29:51;2.35;;;1.50;;
37719;SDS011;23567;50.156;7.700;2024-03-08T13:32:16;4.57;;;1.73;;
37719;SDS011;23567;50.156;7.700;2024-03-08T13:34:45;2.10;;;1.53;;
37719;SDS011;23567;50.156;7.700;2024-03-08T13:37:10;4.50;;;1.87;;
37719;SDS011;23567;50.156;7.700;2024-03-08T13:39:36;3.78;;;1.75;;
37719;SDS011;23567;50.156;7.700;2024-03-08T13:42:15;2.40;;;1.57;;
37719;SDS011;23567;50.156;7.700;2024-03-08T13:44:47;4.85;;;1.65;;
37719;SDS011;23567;50.156;7.700;2024-03-08T13:47:13;2.00;;;1.50;;
37719;SDS011;23567;50.156;7.700;2024-03-08T13:49:38;2.42;;;1.60;;
37719;SDS011;23567;50.156;7.700;2024-03-08T13:52:04;3.53;;;1.80;;
37719;SDS011;23567;50.156;7.700;2024-03-08T13:54:29;1.97;;;1.20;;
37719;SDS011;23567;50.156;7.700;2024-03-08T13:56:56;4.78;;;1.85;;
37719;SDS011;23567;50.156;7.700;2024-03-08T13:59:21;3.23;;;1.67;;
37719;SDS011;23567;50.156;7.700;2024-03-08T14:01:54;3.35;;;1.55;;
37719;SDS011;23567;50.156;7.700;2024-03-08T14:04:19;2.43;;;1.37;;
37719;SDS011;23567;50.156;7.700;2024-03-08T14:06:44;2.63;;;1.50;;
37719;SDS011;23567;50.156;7.700;2024-03-08T14:09:14;2.83;;;1.42;;
37719;SDS011;23567;50.156;7.700;2024-03-08T14:11:42;3.65;;;1.40;;
37719;SDS011;23567;50.156;7.700;2024-03-08T14:14:09;2.27;;;1.43;;
37719;SDS011;23567;50.156;7.700;2024-03-08T14:16:34;4.13;;;1.83;;
37719;SDS011;23567;50.156;7.700;2024-03-08T14:19:02;7.07;;;1.77;;
37719;SDS011;23567;50.156;7.700;2024-03-08T14:21:30;3.60;;;1.60;;
37719;SDS011;23567;50.156;7.700;2024-03-08T14:23:56;5.57;;;1.73;;
37719;SDS011;23567;50.156;7.700;2024-03-08T14:26:21;2.80;;;1.70;;
37719;SDS011;23567;50.156;7.700;2024-03-08T14:28:46;2.67;;;1.43;;
37719;SDS011;23567;50.156;7.700;2024-03-08T14:31:12;3.20;;;1.60;;
37719;SDS011;23567;50.156;7.700;2024-03-08T14:33:37;6.10;;;1.67;;
37719;SDS011;23567;50.156;7.700;2024-03-08T14:36:02;2.38;;;1.30;;
37719;SDS011;23567;50.156;7.700;2024-03-08T14:38:28;3.58;;;1.80;;
37719;SDS011;23567;50.156;7.700;2024-03-08T14:40:53;5.10;;;1.95;;
37719;SDS011;23567;50.156;7.700;2024-03-08T14:43:19;4.53;;;1.70;;
37719;SDS011;23567;50.156;7.700;2024-03-08T14:45:46;3.63;;;1.73;;